Time;durP1;ratioP1;P1;durP2;ratioP2;P2;SDS_P1;SDS_P2;PMS_P1;PMS_P2;Temp;Humidity;BMP_temperature;BMP_pressure;BME280_temperature;BME280_humidity;BME280_pressure;Samples;Min_cycle;Max_cycle;Signal;HPM_P1;HPM_P2
2021/03/24 00:01:12;;;;;;;35.42;16.52;;;3.60;91.50;;;;;;5076423;28;20199;-83
2021/03/24 00:03:38;;;;;;;46.47;17.55;;;3.50;91.50;;;;;;5076424;28;20177;-83
2021/03/24 00:06:04;;;;;;;39.13;16.50;;;3.40;91.90;;;;;;5076508;28;20792;-83
2021/03/24 00:08:30;;;;;;;42.13;15.40;;;3.40;91.90;;;;;;5076695;28;20218;-83
2021/03/24 00:10:56;;;;;;;40.33;15.73;;;3.50;91.60;;;;;;5076488;28;20176;-83
2021/03/24 00:13:22;;;;;;;42.07;15.97;;;3.40;91.70;;;;;;5076629;28;20169;-83
2021/03/24 00:15:49;;;;;;;43.15;16.15;;;3.40;91.80;;;;;;5076752;28;20176;-83
2021/03/24 00:18:15;;;;;;;46.70;17.77;;;3.40;92.00;;;;;;5076246;28;20264;-83
2021/03/24 00:20:43;;;;;;;37.67;14.80;;;3.30;92.00;;;;;;5075995;28;20275;-83
2021/03/24 00:23:09;;;;;;;34.97;15.57;;;3.30;91.90;;;;;;5075465;28;20505;-82
2021/03/24 00:25:35;;;;;;;44.58;15.13;;;3.30;92.00;;;;;;5076053;28;20191;-83
2021/03/24 00:28:02;;;;;;;39.50;16.50;;;3.30;92.00;;;;;;5075784;28;20184;-83
2021/03/24 00:30:31;;;;;;;45.65;14.20;;;3.20;91.80;;;;;;5075004;28;20419;-83
2021/03/24 00:32:57;;;;;;;42.15;15.52;;;3.20;92.10;;;;;;5075845;28;20840;-83
2021/03/24 00:35:23;;;;;;;37.85;15.35;;;3.10;92.40;;;;;;5074788;28;20176;-83
2021/03/24 00:37:49;;;;;;;36.75;14.10;;;3.10;92.30;;;;;;5074898;28;20192;-83
2021/03/24 00:40:19;;;;;;;46.75;15.23;;;3.00;92.90;;;;;;5076632;28;20544;-83
2021/03/24 00:42:44;;;;;;;38.05;14.52;;;3.00;93.30;;;;;;5076840;28;20192;-82
2021/03/24 00:45:11;;;;;;;45.73;16.57;;;3.00;93.60;;;;;;5077330;28;20200;-82
2021/03/24 00:47:37;;;;;;;38.58;16.23;;;3.00;94.00;;;;;;5077050;28;20177;-82
2021/03/24 00:50:05;;;;;;;44.27;15.80;;;3.00;94.00;;;;;;5077572;28;20204;-82
2021/03/24 00:52:31;;;;;;;40.53;16.27;;;2.90;94.20;;;;;;5076379;28;20455;-82
2021/03/24 00:54:56;;;;;;;44.03;15.87;;;2.90;94.40;;;;;;5076527;28;20660;-82
2021/03/24 00:57:22;;;;;;;42.60;15.03;;;2.90;94.20;;;;;;5076797;28;20528;-82
2021/03/24 00:59:48;;;;;;;34.93;14.07;;;3.00;93.70;;;;;;5076394;28;20183;-83
2021/03/24 01:02:14;;;;;;;44.20;20.10;;;3.00;93.30;;;;;;5076220;28;20434;-83
2021/03/24 01:04:40;;;;;;;56.23;18.93;;;3.00;93.00;;;;;;5076598;28;20426;-83
2021/03/24 01:07:10;;;;;;;41.15;16.90;;;3.00;93.00;;;;;;5077784;28;20184;-81
2021/03/24 01:09:37;;;;;;;34.78;14.48;;;2.90;93.40;;;;;;5077539;28;20196;-81
2021/03/24 01:12:03;;;;;;;34.83;17.00;;;2.90;93.50;;;;;;5076648;28;20192;-81
2021/03/24 01:14:29;;;;;;;34.95;16.50;;;2.90;93.50;;;;;;5077080;28;20539;-81
2021/03/24 01:16:55;;;;;;;39.30;15.77;;;2.80;93.60;;;;;;5076909;28;20164;-81
2021/03/24 01:19:21;;;;;;;34.87;16.23;;;2.80;93.70;;;;;;5077275;28;20173;-81
2021/03/24 01:21:46;;;;;;;38.63;15.97;;;2.70;94.00;;;;;;5076925;28;20430;-81
2021/03/24 01:24:12;;;;;;;33.93;14.63;;;2.70;94.10;;;;;;5077290;28;20446;-81
2021/03/24 01:26:38;;;;;;;36.53;16.27;;;2.60;94.20;;;;;;5077243;28;20430;-81
2021/03/24 01:29:05;;;;;;;35.63;16.30;;;2.60;94.20;;;;;;5076091;28;20232;-81
2021/03/24 01:31:32;;;;;;;43.22;16.98;;;2.60;94.30;;;;;;5060428;28;20224;-81
2021/03/24 01:33:59;;;;;;;34.85;15.13;;;2.60;94.20;;;;;;5076465;28;20249;-81
2021/03/24 01:36:26;;;;;;;45.78;16.02;;;2.60;94.30;;;;;;5076753;28;20183;-81
2021/03/24 01:38:52;;;;;;;42.85;16.17;;;2.50;94.50;;;;;;5077157;28;20180;-81
2021/03/24 01:41:20;;;;;;;43.03;16.35;;;2.50;94.70;;;;;;5077504;28;20195;-81
2021/03/24 01:43:46;;;;;;;40.40;15.07;;;2.50;95.00;;;;;;5077203;28;20184;-81
2021/03/24 01:46:18;;;;;;;38.90;15.65;;;2.50;94.80;;;;;;5076700;28;20176;-80
2021/03/24 01:48:56;;;;;;;38.78;15.60;;;2.60;94.60;;;;;;5076492;28;20196;-81
2021/03/24 01:51:26;;;;;;;38.25;15.85;;;2.50;94.40;;;;;;5076506;28;20678;-80
2021/03/24 01:53:54;;;;;;;40.03;14.63;;;2.50;94.70;;;;;;5076629;28;20251;-80
2021/03/24 01:56:20;;;;;;;36.10;14.07;;;2.40;95.10;;;;;;5076629;28;20234;-80
2021/03/24 01:58:47;;;;;;;31.20;15.52;;;2.40;95.20;;;;;;5076194;28;20168;-80
2021/03/24 02:01:17;;;;;;;40.72;16.42;;;2.40;95.10;;;;;;5076304;28;20291;-80
2021/03/24 02:03:43;;;;;;;41.58;15.77;;;2.40;94.60;;;;;;5075326;28;20175;-80
2021/03/24 02:06:45;;;;;;;40.20;15.40;;;2.40;94.70;;;;;;5076090;28;20183;-80
2021/03/24 02:09:44;;;;;;;37.70;15.52;;;2.40;95.20;;;;;;5076186;28;20208;-80
2021/03/24 02:12:48;;;;;;;35.97;16.02;;;2.40;95.30;;;;;;5075914;28;20215;-80
2021/03/24 02:15:25;;;;;;;42.50;15.90;;;2.40;94.70;;;;;;5075464;28;20200;-80
2021/03/24 02:17:52;;;;;;;46.22;16.75;;;2.40;94.40;;;;;;5076649;28;20164;-80
2021/03/24 02:20:29;;;;;;;45.15;15.82;;;2.50;94.20;;;;;;5077844;28;20226;-80
2021/03/24 02:23:26;;;;;;;36.40;15.05;;;2.50;94.00;;;;;;5075767;28;20230;-80
2021/03/24 02:25:58;;;;;;;44.25;15.38;;;2.50;93.70;;;;;;5075896;28;20192;-80
2021/03/24 02:28:24;;;;;;;38.92;14.75;;;2.40;93.50;;;;;;5076018;28;20196;-80
2021/03/24 02:30:51;;;;;;;43.80;16.10;;;2.40;93.70;;;;;;5076394;28;20179;-80
2021/03/24 02:33:22;;;;;;;39.10;15.85;;;2.40;93.90;;;;;;5076382;28;20177;-80
2021/03/24 02:35:56;;;;;;;47.85;16.52;;;2.30;94.30;;;;;;5076282;28;20202;-80
2021/03/24 02:38:24;;;;;;;39.33;15.75;;;2.30;94.90;;;;;;5076156;28;20183;-80
2021/03/24 02:40:52;;;;;;;44.25;16.95;;;2.20;95.30;;;;;;5075138;28;20183;-80
2021/03/24 02:43:20;;;;;;;35.55;15.82;;;2.20;95.40;;;;;;5076274;28;20183;-80
2021/03/24 02:45:47;;;;;;;42.13;16.08;;;2.20;95.30;;;;;;5075703;28;20172;-80
2021/03/24 02:48:27;;;;;;;44.80;16.02;;;2.20;95.40;;;;;;5076202;28;20172;-80
2021/03/24 02:50:55;;;;;;;38.10;13.98;;;2.20;95.60;;;;;;5075895;28;20164;-80
2021/03/24 02:53:22;;;;;;;43.15;15.20;;;2.20;95.60;;;;;;5076001;28;20661;-80
2021/03/24 02:55:48;;;;;;;37.35;14.57;;;2.20;95.70;;;;;;5075665;28;20380;-80
2021/03/24 02:58:14;;;;;;;44.28;17.02;;;2.20;95.50;;;;;;5076475;28;20299;-80
2021/03/24 03:00:41;;;;;;;40.15;14.60;;;2.20;95.60;;;;;;5075617;28;20182;-80
2021/03/24 03:03:13;;;;;;;41.95;15.85;;;2.20;95.50;;;;;;5075601;28;20168;-80
2021/03/24 03:05:41;;;;;;;49.22;17.38;;;2.20;95.50;;;;;;5076525;28;20169;-80
2021/03/24 03:08:12;;;;;;;41.75;15.88;;;2.20;95.50;;;;;;5075677;28;20176;-80
2021/03/24 03:10:55;;;;;;;43.92;16.48;;;2.20;95.50;;;;;;5075682;28;20164;-80
2021/03/24 03:13:44;;;;;;;35.22;14.77;;;2.10;95.60;;;;;;5075374;28;20168;-80
2021/03/24 03:16:20;;;;;;;46.97;16.73;;;2.20;95.40;;;;;;5078890;28;20203;-80
2021/03/24 03:18:59;;;;;;;42.08;17.80;;;2.20;95.10;;;;;;5079229;28;20168;-80
2021/03/24 03:21:32;;;;;;;46.95;16.15;;;2.20;95.00;;;;;;5078994;28;20192;-80
2021/03/24 03:24:01;;;;;;;30.60;14.50;;;2.10;95.20;;;;;;5078431;28;20169;-80
2021/03/24 03:26:30;;;;;;;42.78;17.10;;;2.10;95.00;;;;;;5078888;28;20245;-80
2021/03/24 03:29:00;;;;;;;46.10;16.13;;;2.10;95.00;;;;;;5078429;28;20192;-81
2021/03/24 03:31:33;;;;;;;37.70;14.55;;;2.10;94.80;;;;;;5077634;28;20351;-81
2021/03/24 03:33:59;;;;;;;50.08;17.10;;;2.10;94.80;;;;;;5078218;28;20172;-80
2021/03/24 03:36:26;;;;;;;42.35;15.60;;;2.10;94.80;;;;;;5078617;28;20199;-80
2021/03/24 03:38:54;;;;;;;43.95;16.58;;;2.00;94.80;;;;;;5078840;28;20259;-80
2021/03/24 03:41:21;;;;;;;39.72;16.60;;;2.00;94.80;;;;;;5088858;28;20203;-80
2021/03/24 03:43:51;;;;;;;34.10;13.52;;;2.00;94.80;;;;;;5099844;28;20437;-81
2021/03/24 03:46:20;;;;;;;42.10;15.80;;;2.00;94.50;;;;;;5098427;28;20612;-80
2021/03/24 03:48:48;;;;;;;36.83;14.45;;;1.80;95.00;;;;;;5098524;28;20318;-80
2021/03/24 03:51:35;;;;;;;36.72;15.32;;;1.80;95.00;;;;;;5098533;28;20192;-80
2021/03/24 03:54:25;;;;;;;37.00;17.00;;;1.80;95.30;;;;;;5098542;28;20168;-80
2021/03/24 03:57:18;;;;;;;36.90;15.27;;;1.70;95.50;;;;;;5099948;28;20179;-81
2021/03/24 04:00:05;;;;;;;41.25;14.88;;;1.70;96.10;;;;;;5101389;28;20426;-81
2021/03/24 04:02:50;;;;;;;42.17;15.27;;;1.60;96.50;;;;;;5098375;28;20202;-79
2021/03/24 04:05:21;;;;;;;34.58;15.07;;;1.50;97.10;;;;;;5096669;28;20171;-79
2021/03/24 04:08:04;;;;;;;39.20;15.90;;;1.40;97.50;;;;;;5101314;28;20168;-81
2021/03/24 04:10:33;;;;;;;46.85;18.50;;;1.40;97.30;;;;;;5101035;28;20313;-81
2021/03/24 04:13:02;;;;;;;33.20;15.18;;;1.50;97.20;;;;;;5096410;28;20187;-81
2021/03/24 04:15:29;;;;;;;42.65;16.08;;;1.40;97.40;;;;;;5096651;28;20168;-81
2021/03/24 04:18:02;;;;;;;46.78;18.10;;;1.40;97.80;;;;;;5096529;28;20169;-81
2021/03/24 04:20:30;;;;;;;45.45;16.83;;;1.30;98.10;;;;;;5096258;28;20171;-81
2021/03/24 04:23:01;;;;;;;48.03;18.38;;;1.30;98.20;;;;;;5096696;28;20196;-81
2021/03/24 04:25:35;;;;;;;46.60;16.55;;;1.30;98.00;;;;;;5096244;28;20202;-81
2021/03/24 04:28:03;;;;;;;37.47;15.15;;;1.30;97.90;;;;;;5096378;28;20462;-81
2021/03/24 04:30:38;;;;;;;43.85;16.55;;;1.30;97.80;;;;;;5097138;28;20694;-81
2021/03/24 04:33:04;;;;;;;38.70;14.63;;;1.30;97.80;;;;;;5096836;28;20163;-81
2021/03/24 04:35:30;;;;;;;40.40;16.33;;;1.20;97.90;;;;;;5097165;28;20229;-81
2021/03/24 04:37:59;;;;;;;41.17;14.98;;;1.20;98.10;;;;;;5096818;28;20433;-81
2021/03/24 04:40:27;;;;;;;46.83;17.20;;;1.20;98.00;;;;;;5096639;28;20180;-81
2021/03/24 04:43:14;;;;;;;37.53;16.23;;;1.10;98.20;;;;;;5097267;28;20200;-81
2021/03/24 04:45:45;;;;;;;37.60;13.40;;;1.10;98.40;;;;;;5096812;28;20163;-80
2021/03/24 04:48:20;;;;;;;32.95;15.52;;;1.00;98.60;;;;;;5095545;28;20526;-81
2021/03/24 04:50:58;;;;;;;42.75;14.95;;;1.00;98.80;;;;;;5096465;28;20159;-81
2021/03/24 04:53:25;;;;;;;51.97;19.00;;;1.00;98.70;;;;;;5096297;28;20163;-81
2021/03/24 04:55:53;;;;;;;43.10;15.82;;;0.90;98.90;;;;;;5096149;28;20262;-81
2021/03/24 04:58:33;;;;;;;38.50;14.95;;;0.90;99.10;;;;;;5096450;28;20175;-81
2021/03/24 05:01:26;;;;;;;37.08;14.68;;;0.90;99.00;;;;;;5076275;28;20196;-80
2021/03/24 05:04:02;;;;;;;44.85;15.80;;;0.90;99.00;;;;;;5075968;28;20226;-81
2021/03/24 05:06:35;;;;;;;38.13;13.93;;;0.90;99.00;;;;;;5076766;28;20569;-81
2021/03/24 05:09:02;;;;;;;47.05;16.63;;;0.90;99.10;;;;;;5076048;28;20198;-81
2021/03/24 05:11:39;;;;;;;53.15;17.08;;;0.90;98.90;;;;;;5075503;28;20204;-81
2021/03/24 05:14:23;;;;;;;35.63;14.48;;;0.90;99.10;;;;;;5076212;28;20175;-81
2021/03/24 05:16:53;;;;;;;36.25;14.88;;;0.80;99.10;;;;;;5075736;28;20160;-80
2021/03/24 05:19:29;;;;;;;51.45;15.25;;;0.90;99.10;;;;;;5087064;28;20166;-81
2021/03/24 05:22:22;;;;;;;37.00;13.93;;;0.80;99.10;;;;;;5095601;28;20187;-81
2021/03/24 05:24:49;;;;;;;38.40;14.27;;;0.80;99.10;;;;;;5096289;28;20575;-82
2021/03/24 05:27:24;;;;;;;36.45;16.88;;;0.80;99.10;;;;;;5098347;28;20168;-82
2021/03/24 05:29:55;;;;;;;56.38;16.42;;;0.80;99.10;;;;;;5098039;28;20198;-82
2021/03/24 05:32:32;;;;;;;43.70;15.80;;;0.80;99.10;;;;;;5099630;28;20194;-82
2021/03/24 05:35:00;;;;;;;38.97;16.58;;;0.80;99.10;;;;;;5099587;28;20175;-82
2021/03/24 05:37:30;;;;;;;43.10;16.35;;;0.80;99.10;;;;;;5098732;28;20309;-81
2021/03/24 05:40:41;;;;;;;46.13;14.52;;;0.90;99.10;;;;;;5097116;28;20207;-82
2021/03/24 05:43:27;;;;;;;32.95;13.93;;;0.80;99.10;;;;;;5096424;28;20191;-84
2021/03/24 05:46:15;;;;;;;39.08;16.17;;;0.90;99.10;;;;;;5098231;28;20178;-82
2021/03/24 05:48:59;;;;;;;41.17;15.52;;;0.90;99.10;;;;;;5099030;28;20206;-84
2021/03/24 05:51:31;;;;;;;40.13;15.43;;;0.90;99.10;;;;;;5096389;28;20676;-83
2021/03/24 05:54:09;;;;;;;37.65;15.32;;;0.90;99.10;;;;;;5097275;28;20205;-84
2021/03/24 05:56:40;;;;;;;34.70;15.23;;;0.90;99.10;;;;;;5096614;28;20163;-85
2021/03/24 05:59:18;;;;;;;44.72;18.33;;;0.90;99.10;;;;;;5095622;28;20688;-82
2021/03/24 06:01:59;;;;;;;53.58;15.57;;;0.90;99.10;;;;;;5096307;28;20190;-81
2021/03/24 06:04:47;;;;;;;41.40;14.80;;;1.00;99.10;;;;;;5094806;28;20208;-81
2021/03/24 06:07:31;;;;;;;40.65;16.63;;;1.10;99.10;;;;;;5097251;28;20225;-83
2021/03/24 06:10:35;;;;;;;51.40;17.80;;;1.10;98.90;;;;;;5096862;28;20586;-80
2021/03/24 06:13:04;;;;;;;49.30;16.88;;;1.10;98.70;;;;;;5084035;28;20199;-80
2021/03/24 06:15:55;;;;;;;42.22;16.30;;;1.20;98.70;;;;;;5094768;28;20279;-81
2021/03/24 06:18:42;;;;;;;52.22;16.73;;;1.20;98.70;;;;;;5094921;28;20190;-80
2021/03/24 06:21:08;;;;;;;44.88;16.45;;;1.30;98.60;;;;;;5095042;28;20760;-80
2021/03/24 06:23:45;;;;;;;35.47;15.77;;;1.30;98.50;;;;;;5096542;28;20168;-80
2021/03/24 06:26:17;;;;;;;36.13;14.52;;;1.40;98.50;;;;;;5094511;28;20199;-80
2021/03/24 06:28:55;;;;;;;44.63;16.02;;;1.40;98.50;;;;;;5093465;28;20210;-80
2021/03/24 06:31:55;;;;;;;43.42;17.33;;;1.50;98.10;;;;;;5074513;28;20188;-80
2021/03/24 06:34:54;;;;;;;41.22;14.65;;;1.60;97.80;;;;;;5074517;28;20359;-80
2021/03/24 06:37:39;;;;;;;40.42;15.82;;;1.60;97.60;;;;;;5074201;28;20251;-80
2021/03/24 06:40:17;;;;;;;44.25;15.00;;;1.70;97.40;;;;;;5074223;28;20203;-80
2021/03/24 06:43:16;;;;;;;41.83;15.45;;;1.70;97.30;;;;;;5073718;28;20208;-80
2021/03/24 06:45:57;;;;;;;47.42;15.77;;;1.70;97.40;;;;;;5062898;28;20191;-80
2021/03/24 06:49:01;;;;;;;39.47;16.33;;;1.80;97.30;;;;;;5073853;28;20583;-80
2021/03/24 06:51:45;;;;;;;48.35;15.98;;;1.90;96.90;;;;;;5076854;28;20188;-80
2021/03/24 06:54:42;;;;;;;44.42;16.63;;;1.90;96.80;;;;;;5079505;28;20165;-81
2021/03/24 06:57:45;;;;;;;42.58;16.92;;;2.00;96.50;;;;;;5078474;28;20180;-81
2021/03/24 07:00:18;;;;;;;34.83;15.07;;;2.10;96.40;;;;;;5080320;28;20590;-81
2021/03/24 07:02:57;;;;;;;43.20;17.95;;;2.20;96.40;;;;;;5080054;28;20564;-81
2021/03/24 07:05:48;;;;;;;48.45;18.02;;;2.30;96.30;;;;;;5079998;28;20168;-81
2021/03/24 07:08:27;;;;;;;48.05;17.98;;;2.40;95.90;;;;;;5079692;28;20175;-81
2021/03/24 07:11:02;;;;;;;40.38;18.00;;;2.50;95.70;;;;;;5079425;28;20168;-81
2021/03/24 07:13:48;;;;;;;36.00;17.15;;;2.50;95.60;;;;;;5078989;28;20172;-81
2021/03/24 07:16:49;;;;;;;43.65;17.08;;;2.70;95.20;;;;;;5080132;28;20192;-81
2021/03/24 07:19:36;;;;;;;37.67;15.57;;;2.80;94.80;;;;;;5079722;28;20164;-81
2021/03/24 07:22:31;;;;;;;41.75;16.40;;;2.90;94.50;;;;;;5079319;28;20250;-82
2021/03/24 07:25:02;;;;;;;47.10;20.15;;;2.90;94.20;;;;;;5068189;28;20196;-81
2021/03/24 07:27:41;;;;;;;42.47;16.65;;;3.00;94.40;;;;;;5080324;28;20199;-81
2021/03/24 07:30:17;;;;;;;40.83;17.00;;;3.00;94.50;;;;;;5079967;28;20204;-81
2021/03/24 07:32:46;;;;;;;49.17;18.27;;;3.10;94.10;;;;;;5079988;28;20184;-81
2021/03/24 07:35:19;;;;;;;48.55;18.17;;;3.30;93.50;;;;;;5079390;28;20587;-81
2021/03/24 07:38:28;;;;;;;41.78;17.38;;;3.40;93.20;;;;;;5079182;28;20675;-81
2021/03/24 07:41:06;;;;;;;49.65;17.95;;;3.50;93.00;;;;;;5079209;28;20244;-81
2021/03/24 07:43:37;;;;;;;48.53;17.05;;;3.70;92.80;;;;;;5080947;28;20161;-81
2021/03/24 07:46:06;;;;;;;44.13;19.00;;;3.70;92.60;;;;;;5078789;28;20169;-81
2021/03/24 07:48:41;;;;;;;54.40;18.33;;;3.80;92.50;;;;;;5078839;28;20254;-81
2021/03/24 07:51:21;;;;;;;41.45;17.90;;;4.00;92.20;;;;;;5079182;28;20344;-81
2021/03/24 07:53:53;;;;;;;48.80;18.70;;;4.10;91.80;;;;;;5077566;28;20543;-81
2021/03/24 07:56:28;;;;;;;45.92;19.13;;;4.30;91.50;;;;;;5078389;28;20171;-82
2021/03/24 07:59:08;;;;;;;46.65;18.20;;;4.40;91.10;;;;;;5080875;28;20183;-80
2021/03/24 08:01:41;;;;;;;47.83;18.15;;;4.50;91.00;;;;;;5079938;28;20192;-80
2021/03/24 08:04:38;;;;;;;42.05;16.92;;;4.70;90.50;;;;;;5080954;28;20240;-80
2021/03/24 08:07:10;;;;;;;49.50;19.52;;;4.90;90.20;;;;;;5080762;28;20173;-80
2021/03/24 08:10:07;;;;;;;38.40;18.67;;;5.00;90.10;;;;;;5079530;28;20196;-80
2021/03/24 08:12:54;;;;;;;45.33;17.63;;;5.20;89.50;;;;;;5081818;28;20185;-80
2021/03/24 08:15:34;;;;;;;41.90;18.98;;;5.40;88.80;;;;;;5080569;28;20218;-80
2021/03/24 08:18:30;;;;;;;38.83;16.38;;;5.60;88.40;;;;;;5078617;28;20161;-81
2021/03/24 08:21:02;;;;;;;43.83;17.27;;;5.80;87.60;;;;;;5078219;28;20534;-83
2021/03/24 08:23:56;;;;;;;55.58;20.67;;;5.90;86.60;;;;;;5079940;28;20165;-83
2021/03/24 08:26:40;;;;;;;45.80;19.17;;;6.10;85.60;;;;;;5078484;28;20194;-83
2021/03/24 08:29:09;;;;;;;46.90;18.88;;;6.10;85.60;;;;;;5078058;28;20632;-83
2021/03/24 08:32:02;;;;;;;51.33;17.95;;;6.20;84.90;;;;;;5078329;28;20192;-83
2021/03/24 08:34:38;;;;;;;50.03;19.13;;;6.30;85.10;;;;;;5078668;28;20176;-83
2021/03/24 08:37:22;;;;;;;54.40;17.88;;;6.50;84.40;;;;;;5078766;28;20337;-84
2021/03/24 08:40:15;;;;;;;39.90;18.52;;;6.60;84.20;;;;;;5077629;28;20211;-83
2021/03/24 08:43:04;;;;;;;52.10;19.48;;;6.70;83.50;;;;;;5077012;28;20245;-84
2021/03/24 08:45:45;;;;;;;38.47;16.88;;;6.80;83.40;;;;;;5078009;28;20173;-83
2021/03/24 08:48:43;;;;;;;44.20;19.65;;;7.00;82.60;;;;;;5077584;28;20267;-83
2021/03/24 08:51:37;;;;;;;44.97;17.48;;;7.10;81.20;;;;;;5076877;28;20627;-84
2021/03/24 08:54:24;;;;;;;47.97;19.63;;;7.30;79.90;;;;;;5077268;28;20225;-83
2021/03/24 08:56:49;;;;;;;42.00;15.90;;;7.40;79.60;;;;;;5075881;28;20162;-83
2021/03/24 08:59:27;;;;;;;36.93;16.07;;;7.50;79.20;;;;;;5075084;28;20234;-82
2021/03/24 09:01:56;;;;;;;48.25;16.80;;;7.70;79.20;;;;;;5075878;28;20207;-82
2021/03/24 09:04:40;;;;;;;34.20;16.17;;;7.90;78.50;;;;;;5075425;28;20172;-82
2021/03/24 09:07:38;;;;;;;48.00;19.17;;;8.00;77.80;;;;;;5077288;28;20195;-83
2021/03/24 09:10:21;;;;;;;42.50;18.35;;;8.10;77.60;;;;;;5072775;28;20771;-82
2021/03/24 09:13:03;;;;;;;42.58;17.55;;;8.30;77.60;;;;;;5077082;28;20196;-82
2021/03/24 09:15:47;;;;;;;45.88;17.38;;;8.40;76.90;;;;;;5076799;28;20186;-82
2021/03/24 09:18:21;;;;;;;55.35;18.05;;;8.60;76.00;;;;;;5076768;28;20173;-82
2021/03/24 09:21:26;;;;;;;46.70;19.13;;;8.60;75.30;;;;;;5075115;28;20620;-84
2021/03/24 09:24:40;;;;;;;42.22;18.85;;;8.70;75.50;;;;;;5056844;28;20215;-83
2021/03/24 09:27:33;;;;;;;41.53;17.52;;;8.90;75.50;;;;;;5023244;28;20750;-83
2021/03/24 09:30:36;;;;;;;38.92;19.02;;;9.00;74.80;;;;;;5074016;28;20200;-83
2021/03/24 09:33:23;;;;;;;46.47;17.67;;;9.20;74.10;;;;;;5074198;28;20188;-83
2021/03/24 09:36:15;;;;;;;42.10;15.85;;;9.40;74.10;;;;;;5073827;28;20609;-83
2021/03/24 09:38:43;;;;;;;39.65;15.10;;;9.50;73.40;;;;;;5074121;28;20180;-83
2021/03/24 09:41:18;;;;;;;37.00;17.60;;;9.60;71.20;;;;;;5074086;28;20189;-83
2021/03/24 09:43:47;;;;;;;35.33;15.75;;;9.70;70.90;;;;;;5073488;28;20612;-83
2021/03/24 09:46:44;;;;;;;42.58;16.40;;;9.80;70.80;;;;;;5073021;28;20514;-83
2021/03/24 09:49:33;;;;;;;35.45;16.67;;;10.00;70.10;;;;;;5071075;28;20200;-83
2021/03/24 09:52:30;;;;;;;36.25;16.15;;;10.10;69.90;;;;;;5072559;28;20204;-83
2021/03/24 09:55:20;;;;;;;35.53;16.48;;;10.30;69.80;;;;;;5071913;28;20169;-84
2021/03/24 09:58:08;;;;;;;42.78;15.82;;;10.50;68.50;;;;;;5071530;28;20165;-84
2021/03/24 10:00:41;;;;;;;31.88;14.43;;;10.70;68.10;;;;;;5071413;28;20215;-84
2021/03/24 10:03:22;;;;;;;37.45;14.82;;;10.80;66.60;;;;;;5071825;28;20168;-84
2021/03/24 10:06:18;;;;;;;38.33;16.27;;;10.90;66.00;;;;;;5074085;28;20636;-83
2021/03/24 10:08:50;;;;;;;32.80;14.02;;;11.00;65.60;;;;;;5072965;28;20192;-83
2021/03/24 10:11:29;;;;;;;36.47;14.23;;;11.00;66.40;;;;;;5072987;28;20184;-83
2021/03/24 10:13:59;;;;;;;42.28;15.02;;;11.20;65.10;;;;;;5073507;28;20255;-83
2021/03/24 10:16:31;;;;;;;35.42;15.07;;;11.30;63.80;;;;;;5072908;28;20167;-84
2021/03/24 10:19:02;;;;;;;33.47;13.35;;;11.50;63.70;;;;;;5073577;28;20164;-83
2021/03/24 10:21:41;;;;;;;35.08;16.52;;;11.60;63.30;;;;;;5072696;28;20192;-84
2021/03/24 10:24:34;;;;;;;31.55;14.25;;;11.70;65.20;;;;;;5072965;28;20164;-83
2021/03/24 10:27:09;;;;;;;36.75;15.65;;;11.80;63.80;;;;;;5077266;28;20199;-83
2021/03/24 10:29:49;;;;;;;32.08;15.43;;;12.00;62.80;;;;;;5076406;28;20206;-83
2021/03/24 10:32:33;;;;;;;33.65;14.82;;;12.20;61.30;;;;;;5076564;28;20545;-84
2021/03/24 10:35:08;;;;;;;37.70;15.65;;;12.20;62.10;;;;;;5076776;28;20169;-84
2021/03/24 10:37:58;;;;;;;40.03;15.02;;;12.30;61.90;;;;;;5076684;28;20164;-84
2021/03/24 10:40:29;;;;;;;34.05;14.57;;;12.50;61.20;;;;;;5076116;28;20203;-84
2021/03/24 10:43:16;;;;;;;35.53;13.30;;;12.70;61.90;;;;;;5076268;28;20283;-84
2021/03/24 10:46:33;;;;;;;37.17;14.85;;;12.80;60.30;;;;;;5076869;28;20183;-80
2021/03/24 10:49:22;;;;;;;26.90;14.10;;;12.90;59.60;;;;;;5066986;28;20287;-82
2021/03/24 10:51:47;;;;;;;33.55;14.50;;;13.10;60.00;;;;;;5075671;28;20192;-84
2021/03/24 10:54:16;;;;;;;40.07;13.90;;;13.10;58.50;;;;;;5075311;28;20169;-82
2021/03/24 10:56:50;;;;;;;33.92;13.40;;;13.20;58.10;;;;;;5078390;28;20169;-83
2021/03/24 10:59:52;;;;;;;27.63;12.63;;;13.30;59.20;;;;;;5078305;28;20175;-83
2021/03/24 11:02:21;;;;;;;28.05;12.35;;;13.50;58.70;;;;;;5073228;28;20204;-82
2021/03/24 11:05:02;;;;;;;32.53;11.68;;;13.70;58.50;;;;;;5077803;28;20175;-81
2021/03/24 11:07:49;;;;;;;26.70;12.25;;;13.90;57.10;;;;;;5077660;28;20507;-83
2021/03/24 11:10:47;;;;;;;24.65;13.52;;;14.10;56.80;;;;;;5077671;28;20238;-83
2021/03/24 11:13:34;;;;;;;26.30;12.77;;;14.20;56.40;;;;;;5078678;28;20203;-83
2021/03/24 11:16:35;;;;;;;33.63;13.80;;;14.50;55.70;;;;;;5078466;28;20202;-83
2021/03/24 11:19:22;;;;;;;29.95;12.35;;;14.70;54.90;;;;;;5078093;28;20223;-85
2021/03/24 11:21:56;;;;;;;29.92;12.95;;;14.90;52.90;;;;;;5078439;28;20668;-82
2021/03/24 11:24:28;;;;;;;26.45;11.85;;;15.00;53.30;;;;;;5078784;28;20168;-83
2021/03/24 11:27:18;;;;;;;24.13;12.70;;;14.90;52.90;;;;;;5078545;28;20178;-81
2021/03/24 11:29:56;;;;;;;24.77;12.40;;;14.70;54.50;;;;;;5077559;28;20188;-82
2021/03/24 11:32:33;;;;;;;36.05;12.88;;;14.80;53.40;;;;;;5077336;28;20214;-82
2021/03/24 11:35:22;;;;;;;25.27;10.93;;;14.90;53.30;;;;;;5078171;28;20171;-83
2021/03/24 11:38:26;;;;;;;27.58;11.98;;;14.90;52.90;;;;;;5077480;28;20172;-84
2021/03/24 11:40:52;;;;;;;26.85;13.40;;;14.80;53.70;;;;;;5077882;28;20156;-82
2021/03/24 11:43:24;;;;;;;21.20;10.43;;;14.80;53.60;;;;;;5078151;28;20180;-83
2021/03/24 11:46:05;;;;;;;30.35;12.70;;;14.90;53.00;;;;;;5078160;28;20173;-83
2021/03/24 11:48:44;;;;;;;29.50;13.75;;;14.70;53.30;;;;;;5078527;28;20171;-83
2021/03/24 11:51:48;;;;;;;24.13;12.20;;;15.00;52.50;;;;;;5077769;28;20199;-81
2021/03/24 11:54:37;;;;;;;24.08;11.93;;;15.30;52.50;;;;;;5079004;28;20194;-82
2021/03/24 11:57:18;;;;;;;28.27;11.65;;;15.60;53.00;;;;;;5077866;28;20195;-81
2021/03/24 12:00:22;;;;;;;26.40;12.25;;;15.90;51.50;;;;;;5078023;28;20649;-82
2021/03/24 12:02:54;;;;;;;33.80;14.48;;;16.20;50.30;;;;;;5077138;28;20594;-82
2021/03/24 12:05:30;;;;;;;27.17;11.95;;;16.40;49.10;;;;;;5077772;28;20687;-82
2021/03/24 12:07:56;;;;;;;24.40;12.48;;;16.40;49.20;;;;;;5077556;28;20222;-82
2021/03/24 12:10:31;;;;;;;21.67;12.40;;;16.50;49.00;;;;;;5076461;28;20196;-82
2021/03/24 12:13:02;;;;;;;26.63;12.50;;;16.80;49.10;;;;;;5076800;28;20957;-81
2021/03/24 12:15:33;;;;;;;25.60;12.57;;;16.80;48.30;;;;;;5077338;28;20214;-82
2021/03/24 12:18:05;;;;;;;26.20;13.25;;;16.80;49.00;;;;;;5077204;28;20640;-81
2021/03/24 12:20:30;;;;;;;28.98;13.35;;;16.60;47.10;;;;;;5077401;28;20196;-81
2021/03/24 12:22:58;;;;;;;33.70;13.67;;;16.50;48.30;;;;;;5076943;28;20196;-82
2021/03/24 12:25:31;;;;;;;30.27;12.88;;;16.60;48.20;;;;;;5076491;28;20207;-81
2021/03/24 12:28:00;;;;;;;27.77;12.98;;;16.80;48.70;;;;;;5076604;28;20515;-82
2021/03/24 12:30:28;;;;;;;30.75;13.55;;;16.90;48.60;;;;;;5076775;28;20604;-81
2021/03/24 12:33:25;;;;;;;34.67;14.23;;;17.10;47.70;;;;;;5075998;28;20561;-82
2021/03/24 12:36:23;;;;;;;33.00;15.50;;;16.70;47.40;;;;;;5076257;28;20402;-81
2021/03/24 12:38:57;;;;;;;32.47;14.55;;;16.40;48.80;;;;;;5072514;28;20779;-82
2021/03/24 12:41:34;;;;;;;26.48;13.88;;;16.30;49.80;;;;;;5076340;28;20208;-82
2021/03/24 12:44:12;;;;;;;33.90;15.65;;;16.60;47.90;;;;;;5076608;28;20257;-82
2021/03/24 12:47:03;;;;;;;35.20;14.02;;;16.80;48.10;;;;;;5076850;28;20178;-82
2021/03/24 12:49:32;;;;;;;39.83;14.38;;;17.10;47.30;;;;;;5075187;28;20200;-83
2021/03/24 12:52:33;;;;;;;31.33;14.50;;;17.00;47.80;;;;;;5077605;28;20219;-83
2021/03/24 12:54:59;;;;;;;26.55;13.38;;;17.10;47.00;;;;;;5059524;28;20164;-83
2021/03/24 12:57:38;;;;;;;30.20;14.97;;;17.30;49.50;;;;;;5073092;28;20184;-83
2021/03/24 13:00:52;;;;;;;34.95;16.60;;;17.40;48.10;;;;;;5077016;28;20170;-83
2021/03/24 13:03:39;;;;;;;31.58;15.60;;;17.60;47.30;;;;;;5075850;28;20176;-82
2021/03/24 13:06:28;;;;;;;30.45;14.18;;;17.90;47.10;;;;;;5075081;28;20212;-83
2021/03/24 13:09:19;;;;;;;36.17;14.88;;;17.80;45.20;;;;;;5074819;28;20699;-83
2021/03/24 13:11:44;;;;;;;35.45;16.52;;;17.90;45.00;;;;;;5075121;28;20199;-82
2021/03/24 13:14:43;;;;;;;35.67;15.90;;;18.00;46.60;;;;;;5075239;28;20177;-83
2021/03/24 13:17:14;;;;;;;29.67;14.48;;;18.10;45.40;;;;;;5074852;28;20636;-82
2021/03/24 13:19:44;;;;;;;31.85;15.20;;;17.90;45.70;;;;;;5074540;28;20176;-83
2021/03/24 13:22:23;;;;;;;31.35;13.82;;;18.00;45.40;;;;;;5074596;28;20203;-81
2021/03/24 13:25:07;;;;;;;36.90;15.65;;;18.10;45.60;;;;;;5073999;28;20281;-82
2021/03/24 13:27:51;;;;;;;38.85;15.80;;;18.20;44.40;;;;;;5075480;28;20161;-82